Aeroporto :
LOGIN :

Iscrizione | Disclaimer

   EN    FR    IT 

 










Sommario :    VFR   VFR Marginale   IFR   IFR Intensivo   IFR Molto Intensivo
Visibilità : 
Base nubi : 
>= 8 km
>= 3000ft
5 / 8 km
1000 / 3000 ft
1500m / 5 km
500 / 1000 ft
800 / 1500m
200 / 500 ft
< 800m
< 200 ft
Simboli :   Temporali  Nebbia  Neve Forte  Precipitazioni Forti  Vento > 20 kt
SIGMETs :   Varie  Temporali  Ghiacco  Turbolenza  Onda orograficha  Ceneri Vulcaniche







- Altitudine del aeroporto : 124 ft
- Codice IATA : AVN
- Carte del aeroporto


LFMV - Avignon Caumont

ULTIMO METAR :
  • 251030Z AUTO 33004KT 280V030 CAVOK 30/15 Q1017 NOSIG

METARs OBSOLETI :
  • 251000Z AUTO 36005KT 320V040 CAVOK 29/15 Q1018 NOSIG
  • 250930Z AUTO VRB03KT CAVOK 28/15 Q1018 NOSIG
  • 250900Z AUTO 36004KT 300V070 CAVOK 27/15 Q1018 NOSIG
  • 250830Z AUTO VRB03KT CAVOK 26/15 Q1018 NOSIG
  • 250800Z AUTO VRB02KT CAVOK 26/15 Q1018 NOSIG

TAF TAF LFMV
Valido dal 25 a 09 ore il 26 a 09 ore UTC


250800Z 2509/2609 VRB03KT CAVOK
TEMPO 2516/2519 22011KT
TEMPO 2602/2607 4000 BR SCT005
PROB30
TEMPO 2602/2603 0800 FG VV///
ATIS : +33 4 90 84 32 84
Nessun NOTAM noto per questo aeroporto.



MetMap, La meteo Aeronautica in un colpo d'occhio ! - Copyright ORBIFLY Dicembre 2007 - Disclaimer

ORBIFLY MET'MAP TEAM :

Programmazione e sviluppo : Alexandra Zaïnal
Concezione e sviluppo : Baudouin d'Aumeries
Co-Programmazione e sviluppo : Marc-Olivier Méhu
Supporto tecnico e logistico : Manuel Goepfert
Aiuto per la traduzione : Arnaldo La Scala

Contatto : metmap@orbifly.com




FONTI E CREDITI :

   NOAA